x

West Erie - 16 Nm Nw Of Lorain, Oh (45005) Weather Station

6:50pm - Tue 23rd Sep 2014 All times are CDT. -5 hours from GMT.

  • Average Period 3s
  • Wind
    7mph, 9mph gusts
  • Sea Temp 67°f
  • Air Temp 63°f
  • Sea Pressure 1027.7mb
  • West Erie - 16 Nm Nw Of Lorain, Oh
  • West Erie - 16 Nm Nw Of Lorain, Oh

More Historic Weather Station data

Upgrade to MSW Pro to gain access to the past 30 days of data for over 8000 Wavebouys and Weather Stations around the globe.

Join Pro

Comparision Forecast

View Surf forecast
   
Tue 09/23 6:50pm  -   -  3s 7 9 mph 1027.7mb 67f 63f
5:50pm 0.3ft  -  3s 9 11 mph 1027.6mb 68f 63f
4:50pm  -   -  3s 9 11 mph 1027.6mb 68f 63f
3:50pm  -   -  3s 7 9 mph 1027.5mb 68f 63f
2:50pm 0.3ft  -  3s 4 7 mph 1027.8mb 68f 62f
1:50pm 0.3ft  -  3s 4 7 mph 1028.3mb 68f 62f
12:50pm 0.7ft  -  3s 7 9 mph 1028.5mb 67f 61f
11:50am 0.7ft  -  3s 9 11 mph 1028.7mb 67f 60f
10:50am 0.7ft  -  3s 7 9 mph 1028.5mb 67f 59f
9:50am 1ft 3s 3s 9 11 mph 1028.6mb 67f 58f
8:50am 1ft 3s 3s 11 13 mph 1028.2mb 67f 57f
7:50am 0.7ft  -  3s 11 13 mph 1027.6mb 67f 58f
6:50am 0.7ft  -  3s 11 13 mph 1027.3mb 67f 58f
5:50am  -   -   -  7 9 mph 1026.7mb 67f 59f
4:50am  -   -   -  9
mph
1026.2mb - 58f
3:50am  -   -   -  11
mph
1026mb 67f 59f
2:50am 0.7ft  -  3s 9 11 mph 1025.5mb 67f 60f
1:50am 0.3ft  -  2s 7 9 mph 1025.4mb 67f 60f
12:50am 0.3ft  -  3s 4 7 mph 1025.4mb 67f 61f
Mon 09/22 11:50pm 0.3ft  -  3s 2 4 mph 1025.3mb 67f 60f
10:50pm 0.3ft  -  3s 4 9 mph 1025mb 67f 60f
9:50pm 0.3ft  -  3s 4 7 mph 1025mb 67f 61f
8:50pm 0.3ft  -  3s 7 9 mph 1024.6mb 67f 60f
7:50pm 0.7ft  -  3s 7 11 mph 1024.1mb 67f 60f
6:50pm 0.7ft  -  3s 9 13 mph 1023.3mb 67f 59f
5:50pm  -   -   -  11 13 mph 1023.1mb 67f 58f
4:50pm 1ft 3s 3s 11 13 mph 1022.8mb 67f 57f
3:50pm 1ft 3s 3s 9 13 mph 1023.1mb 67f 55f
2:50pm 1ft 3s 3s 11 13 mph 1023.1mb 67f 54f
1:50pm 1ft 3s 3s 9 11 mph 1023.3mb 67f 53f
12:50pm 1.3ft 3s 3s 9 13 mph 1023.4mb 67f 53f
11:50am 1.6ft 3s 3s 11 18 mph 1023.4mb 67f 52f
10:50am 1.6ft 3s 3s 11 16 mph 1023mb 67f 52f
9:50am 2ft 4s 3s 11 16 mph 1022.6mb 67f 52f
8:50am 2ft 4s 3s 13 22 mph 1021.8mb 67f 52f
7:50am 2ft 4s 3s 13 18 mph 1020.7mb 67f 52f
6:50am 2.5ft 4s 3s 18 22 mph 1020mb 67f 52f
5:50am 2.5ft 4s 3s 18 22 mph 1019mb 67f 53f
4:50am 2.5ft 4s 4s 18 22 mph 1018.2mb 67f 53f
3:50am 3ft 4s 4s 18 25 mph 1017.3mb 67f 53f
2:50am 3.5ft 5s 4s 20 25 mph 1016.7mb 67f 54f
1:50am 4.5ft 5s 4s 20 25 mph 1016.5mb 67f 54f
12:50am 4.5ft 5s 4s 25 29 mph 1015.7mb 67f 55f
Sun 09/21 11:50pm 4ft 5s 4s 27 31 mph 1014.9mb 67f 56f
10:50pm 4.5ft 5s 4s 25 29 mph 1014.5mb 67f 57f
9:50pm 4.5ft 5s 4s 27 34 mph 1013.8mb 67f 57f
8:50pm 4.5ft 5s 4s 29 36 mph 1012.4mb 67f 58f
7:50pm 3.5ft 5s 4s 29 34 mph 1010.9mb 67f 58f
6:50pm 4.5ft 5s 4s 27 34 mph 1009.3mb 67f 60f
5:50pm 5ft 5s 4s 27 34 mph 1007.7mb 67f 63f
4:50pm 5ft 5s 4s 31 36 mph 1006.7mb 67f 62f
3:50pm 4.5ft 5s 4s 34 40 mph 1005.8mb 67f 65f
2:50pm 4.5ft 5s 4s 29 36 mph 1005.3mb 67f 66f
1:50pm 4ft 4s 4s 27 34 mph 1005.3mb 67f 66f
12:50pm 3.5ft 5s 4s 27 29 mph 1005.3mb 67f 67f
11:50am 3.5ft 5s 4s 25 29 mph 1005.1mb 67f 67f
10:50am 3.5ft 5s 4s 25 29 mph 1005.2mb 67f 67f
9:50am 3.5ft 5s 4s 25 34 mph 1004.9mb 67f 67f
8:50am 3.5ft 4s 4s 25 31 mph 1004.5mb 67f 68f
7:50am 3.5ft 4s 4s 27 31 mph 1004mb 67f 69f
6:50am  -   -   -  25 31 mph 1003.7mb 67f 69f
5:50am 2ft 4s 3s 25 29 mph 1003.6mb 68f 69f
4:50am 2.5ft 4s 3s 18 20 mph 1004mb 67f 68f
3:50am 2ft 3s 3s 20 25 mph 1004.8mb 67f 68f
2:50am 1.3ft 3s 3s 11 16 mph 1006.4mb 68f 68f
1:50am 2.5ft 4s 3s 11 13 mph 1007.8mb 68f 67f
12:50am 2ft 4s 3s 20 27 mph 1008.7mb 68f 67f
Sat 09/20 11:50pm 2.5ft 4s 3s 18 22 mph 1009.3mb 68f 67f
10:50pm 2ft 4s 3s 22 27 mph 1009.9mb 68f 68f
9:50pm 2.5ft 4s 4s 22 29 mph 1010.3mb 68f 69f
8:50pm  -   -   -  25 31 mph 1010.6mb 68f 70f
7:50pm 1.3ft 3s 3s 13 16 mph 1011.5mb 68f 72f
6:50pm 1.6ft 3s 3s 13
mph
1010.5mb 68f 72f
5:50pm 1.6ft 4s 3s 13
mph
1010.4mb 68f 73f
4:50pm 2ft 4s 3s 13 16 mph 1010.5mb 68f 73f
3:50pm 2.5ft 4s 3s 16 18 mph 1011.1mb 68f 73f
2:50pm 2.5ft 4s 4s 16 18 mph 1011.9mb 68f 73f
1:50pm 2ft 4s 3s 18 22 mph 1012.2mb 68f 72f
12:50pm 1.3ft 3s 3s 13 16 mph 1013.5mb 68f 71f
11:50am 1.6ft 3s 3s 13 16 mph 1014.9mb 68f 69f
10:50am 2ft 4s 3s 16 20 mph 1015.5mb 68f 68f
9:50am 2.5ft 4s 3s 18 20 mph 1016.6mb 68f 67f
8:50am 2.5ft 4s 3s 20 25 mph 1016.5mb 68f 67f
7:50am 2.5ft 4s 3s 22 25 mph 1016.4mb 68f 66f
6:50am 3ft 4s 4s 22 25 mph 1016.8mb 68f 65f
5:50am 3ft 4s 4s 22 27 mph 1016.8mb 68f 66f
4:50am 2.5ft 3s 3s 20 25 mph 1016.4mb 68f 66f
3:50am 1.6ft 3s 3s 18 22 mph 1016.2mb 68f 65f
2:50am 1.3ft 3s 3s 16 18 mph 1016.6mb 68f 66f
1:50am 1.3ft 4s 3s 11 13 mph 1017.2mb 68f 66f